Latest Weather Observations for Bairnsdale

IDV60801

Issued at 4:35 pm EST Wednesday 23 April 2014 (issued every 30 minutes, with the page automatically refreshed every 10 minutes)

About weather observations | Map of weather stations | Latest weather observations for VIC | Other Formats
Station Details ID: 085279 Name: BAIRNSDALE AIRPORT Lat: -37.88 Lon: 147.57 Height: 49.4 m
Data from the previous 72 hours. | See also: Recent months at Bairnsdale
Date/Time
EST
Temp
°C
App
Temp
°C
Dew
Point
Rel
Hum
%
Delta-T
°C
Wind Press
QNH
hPa
Press
MSL
hPa
Rain
since 9 am
mm
Dir
 
Spd
km/h
Gust
km/h
Spd
kts
Gust
kts
23/04:30pm 16.8 16.2 12.3 75 2.5 ESE 7 9 4 5 1013.3 - 0.0
23/04:00pm 16.9 15.9 12.2 74 2.6 SE 9 11 5 6 1013.4 - 0.0
23/03:30pm 16.9 15.2 12.4 75 2.5 SE 13 15 7 8 1013.2 - 0.0
23/03:00pm 17.2 15.1 12.5 74 2.6 SSE 15 19 8 10 1013.3 1013.2 0.0
23/02:30pm 17.6 16.0 12.7 73 2.7 ESE 13 20 7 11 1013.0 - 0.0
23/02:00pm 17.9 16.6 12.4 70 3.1 SE 11 19 6 10 1013.1 - 0.0
23/01:30pm 18.2 17.2 12.2 68 3.3 S 9 13 5 7 1013.2 - 0.0
23/01:00pm 18.1 17.7 12.3 69 3.2 S 6 9 3 5 1013.7 - 0.0
23/12:30pm 18.1 17.6 12.8 71 3.0 SE 7 9 4 5 1014.0 - 0.0
23/12:00pm 17.6 16.7 12.7 73 2.7 ENE 9 11 5 6 1014.7 1014.7 0.0
23/11:30am 17.5 17.1 13.0 75 2.5 E 7 11 4 6 1015.3 - 0.0
23/11:00am 16.0 15.1 12.7 81 1.8 ENE 9 15 5 8 1015.6 - 0.0
23/10:30am 15.4 15.1 13.2 87 1.2 NNE 7 9 4 5 1016.1 - 0.0
23/10:00am 15.4 15.5 13.8 90 0.9 N 6 9 3 5 1016.3 - 0.0
23/09:37am 14.9 14.8 13.9 94 0.6 NNW 7 9 4 5 1016.3 - 0.0
23/09:30am 14.9 14.9 14.3 96 0.3 NNW 7 9 4 5 1016.3 - 0.0
23/09:04am 14.0 14.0 13.7 98 0.2 N 6 9 3 5 1016.5 - 0.0
23/09:00am 14.0 14.1 13.8 99 0.1 NNW 6 7 3 4 1016.5 1016.5 2.4
23/08:46am 13.8 13.6 13.6 99 0.1 NNW 7 7 4 4 1016.6 - 2.4
23/08:30am 13.5 13.2 13.3 99 0.1 NW 7 9 4 5 1016.8 - 2.4
23/08:00am 13.4 12.7 13.2 99 0.1 NW 9 11 5 6 1016.6 - 2.4
23/07:30am 13.3 12.9 13.1 99 0.1 NW 7 7 4 4 1016.5 - 2.4
23/07:00am 13.3 13.5 13.1 99 0.1 WNW 4 7 2 4 1016.3 - 2.4
23/06:30am 13.3 13.9 13.1 99 0.1 WSW 2 9 1 5 1016.4 - 2.4
23/06:14am 13.3 14.2 13.0 98 0.2 CALM 0 0 0 0 1016.3 - 2.4
23/06:00am 13.3 14.2 13.0 98 0.2 N 0 0 0 0 1016.3 1016.3 2.4
23/05:30am 13.2 14.1 12.9 98 0.2 CALM 0 0 0 0 1016.5 - 2.4
23/05:00am 13.3 13.1 13.0 98 0.2 WSW 6 7 3 4 1016.5 - 2.4
23/04:30am 13.3 13.0 12.8 97 0.3 SW 6 7 3 4 1016.6 - 2.4
23/04:25am 13.3 13.0 12.7 96 0.3 SW 6 7 3 4 1016.5 - 2.4
23/04:00am 13.5 14.4 12.9 96 0.3 CALM 0 0 0 0 1016.6 - 2.4
23/03:50am 13.6 14.5 13.0 96 0.3 CALM 0 0 0 0 1016.5 - 2.4
23/03:30am 13.5 14.4 12.9 96 0.3 CALM 0 0 0 0 1016.6 - 2.4
23/03:00am 13.5 14.4 12.9 96 0.3 SW 0 0 0 0 1016.6 1016.6 2.4
23/02:59am 13.6 14.5 13.0 96 0.3 CALM 0 0 0 0 1016.7 - 2.4
23/02:34am 13.7 14.7 13.2 97 0.3 CALM 0 0 0 0 1016.9 - 2.4
23/02:30am 13.7 14.7 13.2 97 0.3 CALM 0 0 0 0 1016.9 - 2.4
23/02:00am 13.6 13.4 13.1 97 0.3 WSW 6 7 3 4 1017.1 - 2.4
23/01:30am 13.6 13.4 13.0 96 0.3 W 6 7 3 4 1017.2 - 2.4
23/01:00am 13.7 13.3 13.1 96 0.3 W 7 9 4 5 1017.4 - 2.4
23/12:30am 13.7 13.3 13.1 96 0.3 WNW 7 9 4 5 1017.6 - 2.4
23/12:00am 13.6 13.2 13.0 96 0.3 NW 7 9 4 5 1017.7 1017.7 2.4
 
Date/Time
EST
Temp
°C
App
Temp
°C
Dew
Point
Rel
Hum
%
Delta-T
°C
Wind Press
QNH
hPa
Press
MSL
hPa
Rain
since 9 am
mm
Dir
 
Spd
km/h
Gust
km/h
Spd
kts
Gust
kts
22/11:30pm 13.7 13.4 13.2 97 0.3 WNW 7 9 4 5 1017.7 - 2.4
22/11:00pm 13.8 13.5 13.3 97 0.3 NW 7 11 4 6 1017.9 - 2.4
22/10:30pm 13.8 13.5 13.3 97 0.3 NW 7 9 4 5 1017.8 - 2.4
22/10:00pm 13.8 13.5 13.2 96 0.3 WNW 7 7 4 4 1017.9 - 2.2
22/09:30pm 13.9 13.8 13.3 96 0.3 SSW 6 9 3 5 1017.5 - 2.2
22/09:08pm 14.1 13.5 13.6 97 0.3 SW 9 15 5 8 1017.6 - 2.2
22/09:00pm 14.2 13.7 13.7 97 0.3 WSW 9 13 5 7 1017.6 1017.6 2.2
22/08:38pm 14.2 13.7 13.7 97 0.3 W 9 15 5 8 1017.2 - 2.2
22/08:30pm 14.2 13.7 13.7 97 0.3 W 9 13 5 7 1017.1 - 2.2
22/08:00pm 14.2 13.6 13.6 96 0.3 W 9 11 5 6 1016.9 - 2.2
22/07:30pm 14.4 13.1 13.8 96 0.3 WSW 13 20 7 11 1016.6 - 2.2
22/07:00pm 14.5 12.9 13.9 96 0.3 SW 15 17 8 9 1016.0 - 2.0
22/06:43pm 14.5 12.1 13.7 95 0.4 SW 19 24 10 13 1015.9 - 1.8
22/06:31pm 14.7 12.0 13.4 92 0.7 SW 20 24 11 13 1015.7 - 1.6
22/06:30pm 14.7 12.0 13.4 92 0.7 SW 20 28 11 15 1015.6 - 1.4
22/06:00pm 15.9 13.1 12.5 80 1.9 SW 19 24 10 13 1015.4 1015.4 0.0
22/05:30pm 16.2 13.2 12.0 76 2.3 SW 19 24 10 13 1014.8 - 0.0
22/05:00pm 17.2 14.0 11.2 68 3.2 SW 19 24 10 13 1014.2 - 0.0
22/04:30pm 17.7 14.8 11.0 65 3.6 SW 17 20 9 11 1013.8 - 0.0
22/04:00pm 18.3 15.0 10.9 62 4.0 SSW 19 22 10 12 1013.7 - 0.0
22/03:30pm 19.5 17.3 12.0 62 4.2 SSW 15 20 8 11 1013.6 - 0.0
22/03:00pm 20.9 21.1 10.7 52 5.6 CALM 0 4 0 2 1013.3 1013.2 0.0
22/02:30pm 20.2 19.1 10.6 54 5.2 N 7 11 4 6 1013.2 - 0.0
22/02:00pm 21.7 21.9 11.7 53 5.6 SE 2 7 1 4 1013.2 - 0.0
22/01:30pm 19.6 18.7 10.6 56 4.9 S 6 7 3 4 1013.5 - 0.0
22/01:00pm 19.0 16.7 10.6 58 4.5 SSW 13 17 7 9 1014.1 - 0.0
22/12:30pm 19.2 16.7 11.0 59 4.5 SW 15 19 8 10 1014.7 - 0.0
22/12:00pm 20.2 18.1 9.7 51 5.6 W 11 15 6 8 1014.9 1014.9 0.0
22/11:30am 20.8 18.8 10.3 51 5.7 W 11 13 6 7 1015.1 - 0.0
22/11:00am 20.8 18.1 8.8 46 6.3 WSW 13 22 7 12 1015.6 - 0.0
22/10:30am 19.9 16.7 8.6 48 5.9 W 15 20 8 11 1015.9 - 0.0
22/10:00am 19.7 17.2 8.1 47 6.0 W 11 17 6 9 1015.8 - 0.0
22/09:30am 19.0 16.0 7.8 48 5.7 WNW 13 17 7 9 1015.9 - 0.0
22/09:00am 18.7 14.4 6.9 46 5.9 WNW 19 28 10 15 1015.8 1015.8 0.2
22/08:30am 18.5 14.1 6.4 45 6.0 W 19 26 10 14 1015.8 - 0.2
22/08:00am 18.7 13.6 5.9 43 6.3 W 22 32 12 17 1015.5 - 0.2
22/07:30am 18.6 14.0 5.8 43 6.3 WNW 19 30 10 16 1014.5 - 0.2
22/07:00am 18.5 13.7 5.4 42 6.4 WNW 20 28 11 15 1014.0 - 0.2
22/06:30am 18.7 13.8 5.2 41 6.6 NW 20 30 11 16 1013.5 - 0.2
22/06:00am 18.9 13.6 5.0 40 6.7 NW 22 30 12 16 1012.9 1012.8 0.2
22/05:30am 18.6 13.3 4.8 40 6.6 NNW 22 30 12 16 1012.9 - 0.2
22/05:00am 18.7 13.3 4.5 39 6.8 NNW 22 32 12 17 1012.7 - 0.2
22/04:30am 18.6 13.6 4.8 40 6.6 NNW 20 24 11 13 1012.8 - 0.2
22/04:00am 18.4 14.7 4.2 39 6.8 NNW 13 20 7 11 1012.9 - 0.2
22/03:30am 18.7 13.8 4.1 38 6.9 NW 19 24 10 13 1012.8 - 0.2
22/03:00am 17.8 13.8 5.1 43 6.1 NW 15 20 8 11 1012.8 1012.7 0.2
22/02:30am 17.3 14.9 5.3 45 5.8 NNW 7 13 4 7 1013.3 - 0.2
22/02:00am 18.5 13.7 4.7 40 6.6 NW 19 28 10 15 1013.4 - 0.2
22/01:30am 17.6 14.2 5.9 46 5.7 NNW 13 19 7 10 1013.8 - 0.2
22/01:00am 16.6 13.7 6.4 51 5.0 NNW 11 17 6 9 1014.0 - 0.2
22/12:30am 17.3 13.1 5.9 47 5.6 NW 17 24 9 13 1014.2 - 0.2
22/12:00am 17.0 12.5 5.9 48 5.4 NW 19 28 10 15 1014.4 1014.3 0.2
 
Date/Time
EST
Temp
°C
App
Temp
°C
Dew
Point
Rel
Hum
%
Delta-T
°C
Wind Press
QNH
hPa
Press
MSL
hPa
Rain
since 9 am
mm
Dir
 
Spd
km/h
Gust
km/h
Spd
kts
Gust
kts
21/11:30pm 16.3 11.8 6.2 51 4.9 NNW 19 28 10 15 1014.5 - 0.2
21/11:00pm 15.1 11.9 6.7 57 4.1 N 13 15 7 8 1014.8 - 0.2
21/10:30pm 14.1 11.0 7.4 64 3.3 N 13 17 7 9 1014.7 - 0.2
21/10:00pm 12.7 10.5 9.2 79 1.8 N 11 13 6 7 1014.9 - 0.2
21/09:30pm 13.2 11.1 9.6 79 1.8 NNE 11 13 6 7 1015.1 - 0.2
21/09:00pm 14.0 12.0 10.2 78 2.0 N 11 15 6 8 1015.3 1015.3 0.2
21/08:30pm 13.5 11.9 10.3 81 1.7 NNE 9 11 5 6 1015.3 - 0.2
21/08:00pm 13.5 11.4 9.9 79 1.9 NE 11 13 6 7 1015.4 - 0.2
21/07:30pm 13.7 11.8 9.2 74 2.3 NE 9 11 5 6 1015.7 - 0.2
21/07:00pm 14.5 12.3 9.5 72 2.6 NE 11 13 6 7 1015.9 - 0.2
21/06:30pm 15.0 12.8 9.4 69 2.9 ENE 11 13 6 7 1015.9 - 0.2
21/06:00pm 15.8 13.2 9.2 65 3.4 ENE 13 15 7 8 1015.8 1015.8 0.2
21/05:30pm 16.2 14.1 9.8 66 3.4 E 11 13 6 7 1015.8 - 0.2
21/05:00pm 17.2 15.8 10.8 66 3.4 E 9 11 5 6 1015.8 - 0.2
21/04:30pm 17.9 16.2 10.0 60 4.2 ENE 9 11 5 6 1015.7 - 0.2
21/04:00pm 18.8 16.9 10.6 59 4.4 ENE 11 13 6 7 1015.4 - 0.0
21/03:30pm 19.4 16.4 7.8 47 6.0 NE 13 17 7 9 1015.3 - 0.0
21/03:00pm 20.4 17.6 8.4 46 6.3 NE 13 19 7 10 1015.7 1015.7 0.0
21/02:30pm 20.0 16.5 7.4 44 6.4 NE 15 20 8 11 1015.9 - 0.0
21/02:00pm 20.0 16.3 8.0 46 6.2 NNE 17 20 9 11 1016.3 - 0.0
21/01:30pm 20.3 17.4 9.5 50 5.8 NE 15 19 8 10 1016.8 - 0.0
21/01:00pm 19.1 16.9 7.8 48 5.8 N 9 13 5 7 1017.5 - 0.0
21/12:30pm 18.9 17.1 8.0 49 5.6 NNW 7 9 4 5 1018.2 - 0.0
21/12:00pm 17.9 16.2 8.5 54 4.8 N 7 13 4 7 1018.5 1018.5 0.0
21/11:30am 17.4 15.7 8.5 56 4.6 NNE 7 9 4 5 1018.9 - 0.0
21/11:00am 16.5 14.3 8.0 57 4.3 NNE 9 11 5 6 1019.2 - 0.0
21/10:30am 15.7 13.8 7.7 59 4.0 NNE 7 11 4 6 1019.4 - 0.0
21/10:00am 14.1 11.6 6.7 61 3.6 NNE 9 11 5 6 1019.6 - 0.0
21/09:30am 13.5 11.5 7.1 65 3.1 N 7 9 4 5 1020.1 - 0.0
21/09:00am 12.3 9.8 6.6 68 2.7 NNE 9 13 5 7 1019.8 1019.8 0.0
21/08:30am 11.1 9.0 6.8 75 2.0 N 7 9 4 5 1020.2 - 0.0
21/08:00am 9.9 7.2 5.7 75 1.9 N 9 11 5 6 1019.9 - 0.0
21/07:30am 8.5 5.2 4.7 77 1.7 NNE 11 13 6 7 1019.7 - 0.0
21/07:00am 7.4 4.7 3.8 78 1.5 N 7 7 4 4 1019.5 - 0.0
21/06:30am 7.4 3.9 3.6 77 1.6 N 11 13 6 7 1019.3 - 0.0
21/06:00am 7.8 4.7 3.7 75 1.8 N 9 11 5 6 1019.2 1019.2 0.0
21/05:30am 8.5 5.5 4.1 74 1.9 N 9 11 5 6 1019.0 - 0.0
21/05:00am 7.9 4.9 4.1 77 1.7 N 9 11 5 6 1018.8 - 0.0
21/04:30am 7.6 4.6 4.0 78 1.6 N 9 11 5 6 1018.5 - 0.0
21/04:00am 8.2 4.8 4.2 76 1.7 NW 11 15 6 8 1018.3 - 0.0
21/03:30am 7.3 3.8 3.7 78 1.5 NW 11 15 6 8 1018.3 - 0.0
21/03:00am 7.4 4.3 3.8 78 1.5 N 9 11 5 6 1018.3 1018.3 0.0
21/02:30am 8.6 4.8 4.0 73 2.0 NNW 13 17 7 9 1018.3 - 0.0
21/02:00am 8.9 4.8 4.3 73 2.0 NW 15 17 8 9 1018.5 - 0.0
21/01:30am 8.1 4.3 4.1 76 1.7 NW 13 17 7 9 1018.6 - 0.0
21/01:00am 7.5 4.1 3.9 78 1.6 NW 11 13 6 7 1018.6 - 0.0
21/12:30am 7.3 4.2 3.7 78 1.5 NW 9 11 5 6 1018.6 - 0.0
21/12:00am 7.4 4.4 4.0 79 1.5 NW 9 11 5 6 1018.4 1018.4 0.0
 
Date/Time
EST
Temp
°C
App
Temp
°C
Dew
Point
Rel
Hum
%
Delta-T
°C
Wind Press
QNH
hPa
Press
MSL
hPa
Rain
since 9 am
mm
Dir
 
Spd
km/h
Gust
km/h
Spd
kts
Gust
kts
20/11:30pm 7.2 3.8 4.0 80 1.4 NW 11 13 6 7 1018.5 - 0.0
20/11:00pm 7.7 4.3 3.9 77 1.6 NW 11 13 6 7 1018.6 - 0.0
20/10:30pm 8.3 4.9 4.1 75 1.8 NW 11 15 6 8 1018.8 - 0.0
20/10:00pm 8.3 4.5 4.1 75 1.8 WNW 13 13 7 7 1018.8 - 0.0
20/09:30pm 7.9 4.5 3.8 75 1.8 NW 11 13 6 7 1018.7 - 0.0
20/09:00pm 8.4 5.0 3.8 73 2.0 NW 11 13 6 7 1018.4 1018.4 0.0
20/08:30pm 9.0 5.9 3.6 69 2.3 NNW 9 11 5 6 1018.4 - 0.0
20/08:00pm 9.6 6.5 3.8 67 2.5 NW 9 11 5 6 1018.3 - 0.0
20/07:30pm 10.0 6.6 4.0 66 2.7 NW 11 13 6 7 1018.2 - 0.0
20/07:00pm 10.7 7.3 4.2 64 2.9 NW 11 13 6 7 1017.9 - 0.0
20/06:30pm 11.1 8.2 4.6 64 2.9 WNW 9 13 5 7 1017.7 - 0.0
20/06:00pm 12.0 9.2 5.0 62 3.2 WNW 9 11 5 6 1017.3 1017.3 0.0
20/05:30pm 13.9 10.7 5.3 56 4.0 NW 11 15 6 8 1017.0 - 0.0
20/05:00pm 16.0 12.0 4.7 47 5.3 NW 15 20 8 11 1016.7 - 0.0

Other Formats:

Comma delimited format used in spreadsheet applications
http://www.bom.gov.au/fwo/IDV60801/IDV60801.94912.axf

JavaScript Object Notation format (JSON) in row-major order
http://www.bom.gov.au/fwo/IDV60801/IDV60801.94912.json